createdAt,value
2019-03-04T00:01:31.484Z,-0.40
2019-03-04T00:04:18.023Z,-0.40
2019-03-04T00:07:04.465Z,-0.40
2019-03-04T00:09:50.922Z,-0.40
2019-03-04T00:12:37.418Z,-0.40
2019-03-04T00:15:24.416Z,-0.40
2019-03-04T00:18:10.630Z,-0.40
2019-03-04T00:20:57.248Z,-0.40
2019-03-04T00:23:43.317Z,-0.40
2019-03-04T00:26:29.656Z,-0.40
2019-03-04T00:29:16.135Z,-0.40
2019-03-04T00:32:02.339Z,-0.40
2019-03-04T00:34:48.937Z,-0.40
2019-03-04T00:37:35.275Z,-0.40
2019-03-04T00:40:21.509Z,-0.40
2019-03-04T00:43:07.944Z,-0.40
2019-03-04T00:45:54.272Z,-0.40
2019-03-04T00:48:40.590Z,-0.40
2019-03-04T00:51:27.052Z,-0.40
2019-03-04T00:54:16.205Z,-0.40
2019-03-04T00:57:02.745Z,-0.40
2019-03-04T00:59:48.981Z,-0.40
2019-03-04T01:02:35.428Z,-0.40
2019-03-04T01:05:21.687Z,-0.40
2019-03-04T01:08:08.212Z,-0.40
2019-03-04T01:10:54.510Z,-0.40
2019-03-04T01:13:40.900Z,-0.40
2019-03-04T01:16:26.872Z,-0.40
2019-03-04T01:19:13.248Z,-0.40
2019-03-04T01:21:59.371Z,-0.40
2019-03-04T01:24:45.847Z,-0.40
2019-03-04T01:27:32.208Z,-0.40
2019-03-04T01:30:22.524Z,-0.40
2019-03-04T01:33:08.600Z,-0.40
2019-03-04T01:35:55.002Z,-0.40
2019-03-04T01:38:41.468Z,-0.40
2019-03-04T01:41:27.875Z,-0.40
2019-03-04T01:44:14.265Z,-0.40
2019-03-04T01:47:00.755Z,-0.40
2019-03-04T01:49:47.107Z,-0.40
2019-03-04T01:52:33.503Z,-0.40
2019-03-04T01:55:19.967Z,-0.40
2019-03-04T01:58:06.324Z,-0.40
2019-03-04T02:00:52.585Z,-0.40
2019-03-04T02:03:39.045Z,-0.40
2019-03-04T02:06:25.590Z,-0.40
2019-03-04T02:09:12.192Z,-0.40
2019-03-04T02:11:58.142Z,-0.40
2019-03-04T02:14:44.729Z,-0.40
2019-03-04T02:17:31.011Z,-0.40
2019-03-04T02:20:17.590Z,-0.40
2019-03-04T02:23:03.862Z,-0.40
2019-03-04T02:26:28.748Z,-0.40
2019-03-04T02:29:14.907Z,-0.40
2019-03-04T02:32:01.308Z,-0.40
2019-03-04T02:34:47.951Z,-0.40
2019-03-04T02:37:34.296Z,-0.40
2019-03-04T02:40:20.613Z,-0.40
2019-03-04T02:43:06.989Z,-0.40
2019-03-04T02:45:53.287Z,-0.40
2019-03-04T02:48:39.817Z,-0.40
2019-03-04T02:51:26.130Z,-0.40
2019-03-04T02:54:12.309Z,-0.40
2019-03-04T02:56:58.701Z,-0.40
2019-03-04T02:59:45.070Z,-0.40
2019-03-04T03:02:31.333Z,-0.40
2019-03-04T03:05:17.801Z,-0.40
2019-03-04T03:08:04.153Z,-0.40
2019-03-04T03:10:50.536Z,-0.40
2019-03-04T03:13:37.062Z,-0.30
2019-03-04T03:16:23.251Z,-0.40
2019-03-04T03:19:09.651Z,-0.40
2019-03-04T03:21:56.231Z,-0.40
2019-03-04T03:24:42.485Z,-0.30
2019-03-04T03:27:28.397Z,-0.30
2019-03-04T03:30:15.041Z,-0.30
2019-03-04T03:33:01.309Z,-0.30
2019-03-04T03:35:47.896Z,-0.30
2019-03-04T03:38:34.212Z,-0.30
2019-03-04T03:41:20.647Z,-0.30
2019-03-04T03:44:07.117Z,-0.30
2019-03-04T03:46:53.489Z,-0.30
2019-03-04T03:49:40.200Z,-0.30
2019-03-04T03:52:26.217Z,-0.30
2019-03-04T03:55:12.936Z,-0.30
2019-03-04T03:57:58.859Z,-0.30
2019-03-04T04:00:45.354Z,-0.30
2019-03-04T04:03:31.724Z,-0.30
2019-03-04T04:06:17.985Z,-0.30
2019-03-04T04:09:05.240Z,-0.30
2019-03-04T04:11:51.363Z,-0.30
2019-03-04T04:14:37.740Z,-0.30
2019-03-04T04:17:24.239Z,-0.30
2019-03-04T04:20:10.593Z,-0.30
2019-03-04T04:22:56.906Z,-0.30
2019-03-04T04:25:43.353Z,-0.30
2019-03-04T04:28:30.864Z,-0.30
2019-03-04T04:31:16.966Z,-0.30
2019-03-04T04:34:03.332Z,-0.30
2019-03-04T04:36:49.611Z,-0.30
2019-03-04T04:39:36.044Z,-0.20
2019-03-04T04:42:22.668Z,-0.30
2019-03-04T04:45:09.178Z,-0.30
2019-03-04T04:47:55.193Z,-0.30
2019-03-04T04:50:41.456Z,-0.20
2019-03-04T04:53:27.951Z,-0.30
2019-03-04T04:56:13.873Z,-0.30
2019-03-04T04:59:00.125Z,-0.30
2019-03-04T05:01:46.376Z,-0.30
2019-03-04T05:04:32.888Z,-0.20
2019-03-04T05:07:19.257Z,-0.30
2019-03-04T05:10:09.145Z,-0.30
2019-03-04T05:12:55.291Z,-0.30
2019-03-04T05:15:41.799Z,-0.30
2019-03-04T05:18:28.353Z,-0.30
2019-03-04T05:21:14.809Z,-0.30
2019-03-04T05:24:04.116Z,-0.30
2019-03-04T05:26:50.438Z,-0.30
2019-03-04T05:29:38.300Z,-0.30
2019-03-04T05:32:24.797Z,-0.30
2019-03-04T05:35:11.101Z,-0.20
2019-03-04T05:37:57.461Z,-0.20
2019-03-04T05:40:44.107Z,-0.20
2019-03-04T05:43:30.334Z,-0.20
2019-03-04T05:46:16.652Z,-0.20
2019-03-04T05:49:03.382Z,-0.20
2019-03-04T05:51:49.460Z,-0.20
2019-03-04T05:54:36.144Z,-0.20
2019-03-04T05:57:23.408Z,-0.20
2019-03-04T06:00:17.352Z,-0.20
2019-03-04T06:03:03.715Z,-0.20
2019-03-04T06:05:50.191Z,-0.10
2019-03-04T06:08:36.588Z,-0.10
2019-03-04T06:11:25.654Z,-0.10
2019-03-04T06:14:11.652Z,-0.10
2019-03-04T06:16:58.120Z,0.00
2019-03-04T06:19:44.453Z,0.00
2019-03-04T06:22:31.003Z,0.00
2019-03-04T06:25:19.721Z,0.00
2019-03-04T06:28:05.940Z,0.00
2019-03-04T06:30:52.323Z,0.10
2019-03-04T06:33:38.684Z,0.10
2019-03-04T06:36:26.776Z,0.10
2019-03-04T06:39:13.023Z,0.10
2019-03-04T06:41:59.201Z,0.20
2019-03-04T06:44:45.843Z,0.20
2019-03-04T06:47:32.076Z,0.20
2019-03-04T06:50:54.944Z,0.30
2019-03-04T06:54:11.951Z,0.30
2019-03-04T06:57:01.929Z,0.40
2019-03-04T07:00:26.980Z,0.40
2019-03-04T07:03:36.833Z,0.50
2019-03-04T07:06:23.377Z,0.50
2019-03-04T07:09:17.726Z,0.60
2019-03-04T07:12:04.059Z,0.60
2019-03-04T07:14:50.429Z,0.60
2019-03-04T07:17:37.009Z,0.60
2019-03-04T07:20:23.342Z,0.70
2019-03-04T07:23:09.639Z,0.70
2019-03-04T07:25:56.194Z,0.70
2019-03-04T07:28:42.254Z,0.70
2019-03-04T07:31:28.556Z,0.70
2019-03-04T07:34:15.124Z,0.80
2019-03-04T07:37:01.457Z,0.80
2019-03-04T07:39:47.788Z,0.80
2019-03-04T07:42:34.359Z,0.90
2019-03-04T07:45:20.649Z,0.90
2019-03-04T07:48:06.967Z,0.90
2019-03-04T07:50:53.361Z,0.90
2019-03-04T07:53:46.344Z,0.90
2019-03-04T07:56:27.728Z,1.00
2019-03-04T07:59:13.884Z,1.00
2019-03-04T08:02:00.196Z,1.10
2019-03-04T08:04:46.539Z,1.10
2019-03-04T08:07:37.557Z,1.20
2019-03-04T08:11:03.164Z,1.20
2019-03-04T08:13:53.534Z,1.30
2019-03-04T08:16:39.872Z,1.30
2019-03-04T08:19:26.231Z,1.40
2019-03-04T08:22:12.266Z,1.40
2019-03-04T08:24:58.541Z,1.50
2019-03-04T08:27:44.539Z,1.50
2019-03-04T08:30:30.944Z,1.50
2019-03-04T08:33:17.214Z,1.60
2019-03-04T08:36:03.597Z,1.60
2019-03-04T08:38:50.104Z,1.70
2019-03-04T08:41:36.403Z,1.70
2019-03-04T08:44:23.151Z,1.80
2019-03-04T08:47:09.616Z,1.90
2019-03-04T08:49:55.509Z,1.90
2019-03-04T08:52:41.964Z,1.90
2019-03-04T08:55:28.333Z,2.00
2019-03-04T08:58:34.472Z,2.10
2019-03-04T09:01:20.805Z,2.10
2019-03-04T09:04:07.249Z,2.10
2019-03-04T09:06:53.481Z,2.10
2019-03-04T09:09:39.800Z,2.20
2019-03-04T09:12:26.272Z,2.20
2019-03-04T09:15:12.953Z,2.20
2019-03-04T09:17:59.510Z,2.30
2019-03-04T09:20:46.428Z,2.30
2019-03-04T09:23:32.679Z,2.30
2019-03-04T09:26:19.085Z,2.30
2019-03-04T09:29:05.599Z,2.40
2019-03-04T09:31:51.966Z,2.50
2019-03-04T09:34:38.311Z,2.50
2019-03-04T09:37:24.728Z,2.60
2019-03-04T09:40:13.170Z,2.60
2019-03-04T09:42:59.586Z,2.60
2019-03-04T09:45:45.930Z,2.70
2019-03-04T09:48:33.893Z,2.70
2019-03-04T09:51:24.433Z,2.80
2019-03-04T09:54:08.128Z,2.90
2019-03-04T09:56:54.527Z,2.90
2019-03-04T09:59:40.819Z,3.00
2019-03-04T10:02:31.660Z,3.10
2019-03-04T10:05:50.083Z,3.10
2019-03-04T10:08:53.686Z,3.20
2019-03-04T10:11:49.556Z,3.30
2019-03-04T10:15:38.864Z,3.40
2019-03-04T19:35:01.786Z,0.60
2019-03-04T19:37:47.964Z,0.50
2019-03-04T19:40:34.336Z,0.50
2019-03-04T19:43:20.689Z,0.50
2019-03-04T19:46:07.093Z,0.50
2019-03-04T19:48:53.584Z,0.50
2019-03-04T19:51:39.868Z,0.50
2019-03-04T19:54:26.201Z,0.50
2019-03-04T19:57:12.532Z,0.50
2019-03-04T19:59:58.867Z,0.50
2019-03-04T20:02:45.908Z,0.50
2019-03-04T20:05:33.016Z,0.50
2019-03-04T20:08:19.057Z,0.50
2019-03-04T20:11:05.636Z,0.50
2019-03-04T20:13:51.791Z,0.50
2019-03-04T20:16:38.076Z,0.50
2019-03-04T20:19:24.504Z,0.50
2019-03-04T20:22:11.028Z,0.50
2019-03-04T20:24:57.146Z,0.50
2019-03-04T20:27:43.135Z,0.50
2019-03-04T20:30:29.340Z,0.40
2019-03-04T20:33:15.924Z,0.40
2019-03-04T20:36:02.167Z,0.40
2019-03-04T20:38:48.733Z,0.40
2019-03-04T20:41:36.298Z,0.40
2019-03-04T20:44:22.768Z,0.40
2019-03-04T20:47:09.129Z,0.40
2019-03-04T20:49:54.964Z,0.40
2019-03-04T20:52:41.419Z,0.40
2019-03-04T20:55:27.392Z,0.40
2019-03-04T20:58:13.675Z,0.40
2019-03-04T21:01:00.175Z,0.40
2019-03-04T21:03:46.500Z,0.30
2019-03-04T21:06:32.998Z,0.40
2019-03-04T21:09:19.708Z,0.40
2019-03-04T21:12:06.173Z,0.40
2019-03-04T21:14:52.588Z,0.40
2019-03-04T21:17:39.192Z,0.40
2019-03-04T21:20:25.359Z,0.30
2019-03-04T21:23:11.839Z,0.30
2019-03-04T21:26:04.936Z,0.30
2019-03-04T21:29:34.683Z,0.30
2019-03-04T21:32:28.443Z,0.30
2019-03-04T21:36:04.836Z,0.30
2019-03-04T21:38:54.136Z,0.30
2019-03-04T21:41:56.956Z,0.30
2019-03-04T21:45:31.113Z,0.30
2019-03-04T21:48:32.324Z,0.30
2019-03-04T21:51:43.147Z,0.30
2019-03-04T21:54:29.145Z,0.30
2019-03-04T21:57:37.915Z,0.30
2019-03-04T22:00:34.105Z,0.30
2019-03-04T22:03:23.040Z,0.30
2019-03-04T22:06:10.695Z,0.30
2019-03-04T22:08:57.100Z,0.30
2019-03-04T22:11:43.380Z,0.30
2019-03-04T22:14:29.806Z,0.30
2019-03-04T22:17:16.378Z,0.30
2019-03-04T22:20:03.038Z,0.30
2019-03-04T22:22:50.167Z,0.30
2019-03-04T22:25:36.192Z,0.30
2019-03-04T22:28:22.451Z,0.30
2019-03-04T22:31:09.076Z,0.30
2019-03-04T22:33:55.239Z,0.30
2019-03-04T22:36:41.554Z,0.30
2019-03-04T22:39:28.026Z,0.30
2019-03-04T22:42:14.456Z,0.30
2019-03-04T22:45:00.784Z,0.30
2019-03-04T22:47:48.080Z,0.30
2019-03-04T22:50:34.375Z,0.30
2019-03-04T22:53:20.645Z,0.30
2019-03-04T22:56:07.094Z,0.30
2019-03-04T22:58:53.413Z,0.20
2019-03-04T23:02:04.906Z,0.30
2019-03-04T23:04:55.189Z,0.30
2019-03-04T23:07:53.044Z,0.20
2019-03-04T23:10:45.092Z,0.20
2019-03-04T23:13:40.580Z,0.30
2019-03-04T23:16:29.733Z,0.20
2019-03-04T23:19:15.926Z,0.20
2019-03-04T23:22:05.243Z,0.20
2019-03-04T23:24:51.592Z,0.20
2019-03-04T23:27:38.175Z,0.20
2019-03-04T23:30:24.510Z,0.20
2019-03-04T23:33:10.700Z,0.20
2019-03-04T23:35:57.176Z,0.20
2019-03-04T23:38:43.415Z,0.20
2019-03-04T23:41:29.847Z,0.20
2019-03-04T23:44:16.462Z,0.20
2019-03-04T23:47:02.704Z,0.20
2019-03-04T23:50:14.844Z,0.20
2019-03-04T23:53:01.111Z,0.10
2019-03-04T23:55:47.713Z,0.10
2019-03-04T23:58:34.132Z,0.10
